Time;durP1;ratioP1;P1;durP2;ratioP2;P2;SDS_P1;SDS_P2;PMS_P1;PMS_P2;Temp;Humidity;BMP_temperature;BMP_pressure;BME280_temperature;BME280_humidity;BME280_pressure;Samples;Min_cycle;Max_cycle;Signal;HPM_P1;HPM_P2
2024/01/09 00:00:48;;;;;;;;;;;;;;;11.02;16.30;99765.56;5053786;28;19932;-81
2024/01/09 00:03:14;;;;;;;;;;;;;;;11.70;15.49;99771.81;5054685;28;19971;-81
2024/01/09 00:05:40;;;;;;;;;;;;;;;11.08;15.88;99765.16;5054733;28;19939;-81
2024/01/09 00:08:06;;;;;;;;;;;;;;;10.55;16.42;99772.25;5052361;28;19927;-81
2024/01/09 00:10:32;;;;;;;;;;;;;;;10.45;16.24;99777.16;5049511;28;20443;-81
2024/01/09 00:12:58;;;;;;;;;;;;;;;12.09;15.29;99779.41;5050189;28;19994;-80
2024/01/09 00:15:24;;;;;;;;;;;;;;;11.49;15.66;99784.38;5054539;28;19978;-81
2024/01/09 00:17:51;;;;;;;;;;;;;;;12.40;14.72;99784.97;5048040;28;19928;-81
2024/01/09 00:20:17;;;;;;;;;;;;;;;13.00;14.26;99777.78;5054951;28;19974;-81
2024/01/09 00:22:43;;;;;;;;;;;;;;;13.60;13.98;99785.47;5053445;28;19964;-81
2024/01/09 00:25:09;;;;;;;;;;;;;;;14.38;13.27;99779.59;5052520;28;19920;-81
2024/01/09 00:27:35;;;;;;;;;;;;;;;14.60;12.99;99786.88;5051051;28;19916;-81
2024/01/09 00:30:02;;;;;;;;;;;;;;;14.87;12.88;99782.88;5054278;28;19955;-82
2024/01/09 00:32:29;;;;;;;;;;;;;;;15.06;12.39;99783.28;5054385;28;19927;-81
2024/01/09 00:34:55;;;;;;;;;;;;;;;14.93;12.69;99798.97;5022200;28;20020;-81
2024/01/09 00:37:21;;;;;;;;;;;;;;;14.64;12.61;99800.84;5046329;28;19965;-81
2024/01/09 00:39:48;;;;;;;;;;;;;;;14.62;12.49;99794.84;5042531;28;19913;-82
2024/01/09 00:42:14;;;;;;;;;;;;;;;14.73;12.56;99798.84;5054173;28;20005;-81
2024/01/09 00:44:41;;;;;;;;;;;;;;;14.13;12.85;99812.75;5046067;28;19965;-80
2024/01/09 00:47:07;;;;;;;;;;;;;;;14.00;12.75;99811.78;5047714;28;19970;-80
2024/01/09 00:49:33;;;;;;;;;;;;;;;12.95;12.95;99819.28;5046669;28;19924;-81
2024/01/09 00:52:00;;;;;;;;;;;;;;;11.46;14.24;99823.47;5036500;28;19955;-80
2024/01/09 00:54:26;;;;;;;;;;;;;;;9.11;15.95;99829.03;5047996;28;19974;-80
2024/01/09 00:56:52;;;;;;;;;;;;;;;7.31;17.50;99833.75;5038146;28;20296;-80
2024/01/09 00:59:18;;;;;;;;;;;;;;;7.48;17.21;99836.13;5047166;28;19921;-81
2024/01/09 01:01:50;;;;;;;;;;;;;;;7.97;16.88;99836.09;5044151;28;20305;-81
2024/01/09 01:04:17;;;;;;;;;;;;;;;8.69;16.45;99840.72;5050934;28;19917;-81
2024/01/09 01:06:44;;;;;;;;;;;;;;;9.14;16.00;99836.66;5051838;28;19962;-81
2024/01/09 01:09:10;;;;;;;;;;;;;;;10.20;15.48;99833.28;5045493;28;19920;-81
2024/01/09 01:11:36;;;;;;;;;;;;;;;12.01;13.72;99823.38;5032926;28;19917;-81
2024/01/09 01:14:02;;;;;;;;;;;;;;;13.25;12.81;99819.59;5038247;28;19978;-81
2024/01/09 01:16:29;;;;;;;;;;;;;;;13.79;12.37;99822.63;5039325;28;19929;-81
2024/01/09 01:18:55;;;;;;;;;;;;;;;13.89;12.20;99824.28;5037606;28;19921;-81
2024/01/09 01:21:21;;;;;;;;;;;;;;;13.38;12.43;99824.19;5038487;28;19935;-81
2024/01/09 01:23:47;;;;;;;;;;;;;;;13.18;12.22;99822.84;5050825;28;19920;-81
2024/01/09 01:26:13;;;;;;;;;;;;;;;13.73;12.06;99815.66;5043978;28;19974;-80
2024/01/09 01:28:40;;;;;;;;;;;;;;;13.92;11.90;99814.53;5034979;28;20463;-80
2024/01/09 01:31:06;;;;;;;;;;;;;;;13.94;12.09;99817.78;5045107;28;20323;-80
2024/01/09 01:33:32;;;;;;;;;;;;;;;13.32;12.00;99815.25;5053115;28;20369;-81
2024/01/09 01:35:58;;;;;;;;;;;;;;;12.86;12.52;99821.19;5043438;28;19940;-81
2024/01/09 01:38:25;;;;;;;;;;;;;;;11.56;13.45;99825.19;5050780;28;19920;-81
2024/01/09 01:40:51;;;;;;;;;;;;;;;10.39;14.02;99831.31;5043378;28;19932;-81
2024/01/09 01:43:17;;;;;;;;;;;;;;;10.40;14.12;99820.06;5033129;28;19948;-80
2024/01/09 01:45:43;;;;;;;;;;;;;;;10.56;14.01;99819.75;5030570;28;20012;-81
2024/01/09 01:48:10;;;;;;;;;;;;;;;9.98;14.70;99839.38;5036349;28;19921;-80
2024/01/09 01:50:36;;;;;;;;;;;;;;;8.88;15.29;99839.69;5047544;28;19924;-80
2024/01/09 01:53:04;;;;;;;;;;;;;;;7.73;16.19;99848.81;5044548;28;19921;-80
2024/01/09 01:55:30;;;;;;;;;;;;;;;8.60;15.68;99840.53;5042859;28;19928;-80
2024/01/09 01:57:57;;;;;;;;;;;;;;;10.05;14.71;99836.25;5040638;28;19921;-80
2024/01/09 02:00:24;;;;;;;;;;;;;;;11.23;13.51;99829.19;5042090;28;19937;-80
2024/01/09 02:02:50;;;;;;;;;;;;;;;11.94;13.41;99831.25;5049105;28;20023;-80
2024/01/09 02:05:17;;;;;;;;;;;;;;;11.75;13.08;99829.47;5038169;28;19947;-80
2024/01/09 02:07:49;;;;;;;;;;;;;;;11.38;13.25;99829.72;5052416;28;19924;-80
2024/01/09 02:10:19;;;;;;;;;;;;;;;11.37;13.25;99828.06;5039716;28;19943;-80
2024/01/09 02:12:46;;;;;;;;;;;;;;;11.38;13.38;99832.47;5041080;28;19921;-80
2024/01/09 02:15:12;;;;;;;;;;;;;;;11.66;13.18;99822.22;5045979;28;19925;-80
2024/01/09 02:17:38;;;;;;;;;;;;;;;12.06;12.75;99815.81;5040906;28;20020;-80
2024/01/09 02:20:09;;;;;;;;;;;;;;;12.78;12.05;99821.97;5050000;28;20419;-79
2024/01/09 02:22:35;;;;;;;;;;;;;;;13.19;12.20;99810.66;5036767;28;19944;-80
2024/01/09 02:25:01;;;;;;;;;;;;;;;13.31;12.00;99818.31;5045667;28;19996;-80
2024/01/09 02:27:31;;;;;;;;;;;;;;;13.42;11.72;99816.91;5047012;28;19920;-80
2024/01/09 02:29:58;;;;;;;;;;;;;;;13.52;11.53;99819.34;5052273;28;20295;-80
2024/01/09 02:32:24;;;;;;;;;;;;;;;13.74;11.38;99820.06;5051150;28;19920;-80
2024/01/09 02:34:50;;;;;;;;;;;;;;;13.71;11.18;99819.88;5039174;28;19925;-80
2024/01/09 02:37:16;;;;;;;;;;;;;;;13.51;11.65;99823.25;5045516;28;19955;-80
2024/01/09 02:39:42;;;;;;;;;;;;;;;13.40;12.14;99825.50;5047962;28;19966;-80
2024/01/09 02:42:08;;;;;;;;;;;;;;;13.55;11.44;99822.28;5042997;28;20317;-80
2024/01/09 02:44:34;;;;;;;;;;;;;;;13.38;11.64;99816.72;5042212;28;19940;-80
2024/01/09 02:47:00;;;;;;;;;;;;;;;12.70;11.98;99824.66;5046542;28;20389;-80
2024/01/09 02:49:26;;;;;;;;;;;;;;;11.27;12.46;99820.03;5039766;28;19921;-80
2024/01/09 02:51:53;;;;;;;;;;;;;;;11.28;13.03;99813.41;5046774;28;19921;-80
2024/01/09 02:54:19;;;;;;;;;;;;;;;11.82;12.45;99818.03;5046748;28;19921;-80
2024/01/09 02:56:45;;;;;;;;;;;;;;;12.08;12.37;99815.50;5037859;28;19929;-80
2024/01/09 02:59:11;;;;;;;;;;;;;;;12.20;12.05;99822.09;5049691;28;20359;-80
2024/01/09 03:01:37;;;;;;;;;;;;;;;12.45;11.86;99815.94;5046774;28;20059;-81
2024/01/09 03:04:03;;;;;;;;;;;;;;;12.75;11.67;99817.09;5052593;28;20300;-80
2024/01/09 03:06:29;;;;;;;;;;;;;;;12.69;11.83;99817.53;5042502;28;19921;-80
2024/01/09 03:08:55;;;;;;;;;;;;;;;12.77;11.69;99814.81;5047740;28;20114;-80
2024/01/09 03:11:21;;;;;;;;;;;;;;;12.68;11.88;99819.47;5040176;28;20403;-80
2024/01/09 03:13:47;;;;;;;;;;;;;;;12.03;12.12;99812.88;5034905;28;19921;-80
2024/01/09 03:16:13;;;;;;;;;;;;;;;12.15;11.70;99816.72;5046393;28;19921;-79
2024/01/09 03:18:40;;;;;;;;;;;;;;;12.40;11.49;99812.50;5042556;28;19920;-80
2024/01/09 03:21:06;;;;;;;;;;;;;;;12.70;11.44;99806.19;5044549;28;20332;-80
2024/01/09 03:23:32;;;;;;;;;;;;;;;12.70;11.34;99810.88;5047644;28;19928;-80
2024/01/09 03:25:59;;;;;;;;;;;;;;;13.09;10.92;99808.22;5043269;28;20019;-79
2024/01/09 03:28:25;;;;;;;;;;;;;;;13.33;10.90;99808.59;5036810;28;19943;-80
2024/01/09 03:30:52;;;;;;;;;;;;;;;13.21;10.77;99807.59;5041385;28;20009;-80
2024/01/09 03:33:18;;;;;;;;;;;;;;;13.00;10.85;99807.31;5051390;28;20062;-81
2024/01/09 03:35:44;;;;;;;;;;;;;;;13.03;10.52;99812.19;5044116;28;19928;-80
2024/01/09 03:38:09;;;;;;;;;;;;;;;12.80;10.82;99816.97;5041379;28;19921;-81
2024/01/09 03:40:36;;;;;;;;;;;;;;;12.93;10.68;99809.69;5051708;28;19975;-80
2024/01/09 03:43:02;;;;;;;;;;;;;;;13.13;10.71;99809.19;5017905;28;19982;-80
2024/01/09 03:45:29;;;;;;;;;;;;;;;13.40;10.80;99817.22;5039252;28;19929;-80
2024/01/09 03:47:55;;;;;;;;;;;;;;;13.44;10.21;99811.88;5053362;28;19921;-80
2024/01/09 03:50:22;;;;;;;;;;;;;;;13.22;10.35;99815.53;5054480;28;19923;-79
2024/01/09 03:52:48;;;;;;;;;;;;;;;12.68;10.58;99819.47;5053590;28;20356;-80
2024/01/09 03:55:15;;;;;;;;;;;;;;;12.57;10.73;99820.06;5055000;28;20384;-80
2024/01/09 03:57:44;;;;;;;;;;;;;;;12.77;10.78;99827.78;5050335;28;20384;-80
2024/01/09 04:00:12;;;;;;;;;;;;;;;12.69;10.69;99828.56;5052007;28;20254;-80
2024/01/09 04:02:38;;;;;;;;;;;;;;;12.46;10.34;99822.28;5023781;28;20308;-79
2024/01/09 04:05:06;;;;;;;;;;;;;;;12.58;10.65;99830.75;5054066;28;19917;-80
2024/01/09 04:07:32;;;;;;;;;;;;;;;12.53;10.65;99827.34;5048444;28;19975;-80
2024/01/09 04:09:58;;;;;;;;;;;;;;;12.41;10.74;99838.94;5053921;28;19920;-79
2024/01/09 04:12:24;;;;;;;;;;;;;;;12.15;10.73;99832.41;5053745;28;19956;-79
2024/01/09 04:14:50;;;;;;;;;;;;;;;12.43;10.88;99833.91;5050475;28;20010;-79
2024/01/09 04:17:15;;;;;;;;;;;;;;;12.43;10.71;99837.50;5043020;28;20285;-80
2024/01/09 04:19:41;;;;;;;;;;;;;;;12.29;10.74;99842.25;5052294;28;19921;-80
2024/01/09 04:22:07;;;;;;;;;;;;;;;12.38;10.72;99842.28;5049085;28;20004;-80
2024/01/09 04:24:34;;;;;;;;;;;;;;;12.13;10.99;99843.75;5052644;28;20015;-80
2024/01/09 04:27:02;;;;;;;;;;;;;;;12.25;10.46;99843.97;5052094;28;20399;-80
2024/01/09 04:29:28;;;;;;;;;;;;;;;12.04;10.51;99847.53;5049068;28;20034;-80
2024/01/09 04:31:54;;;;;;;;;;;;;;;11.75;10.60;99845.97;5044528;28;19940;-80
2024/01/09 04:34:20;;;;;;;;;;;;;;;11.44;10.91;99849.66;5037589;28;19920;-80
2024/01/09 04:36:46;;;;;;;;;;;;;;;11.74;10.99;99847.09;5039714;28;19921;-80
2024/01/09 04:39:12;;;;;;;;;;;;;;;10.93;11.48;99847.09;5048675;28;19983;-80
2024/01/09 04:41:38;;;;;;;;;;;;;;;11.30;11.26;99846.91;5051477;28;19928;-79
2024/01/09 04:44:04;;;;;;;;;;;;;;;11.95;10.88;99841.94;5047807;28;19925;-79
2024/01/09 04:46:30;;;;;;;;;;;;;;;12.22;10.82;99846.56;5044523;28;19943;-80
2024/01/09 04:48:56;;;;;;;;;;;;;;;11.99;10.80;99842.16;5037289;28;19917;-79
2024/01/09 04:51:22;;;;;;;;;;;;;;;11.96;10.58;99848.25;5040470;28;19932;-80
2024/01/09 04:53:48;;;;;;;;;;;;;;;12.10;10.61;99852.59;5051417;28;19928;-80
2024/01/09 04:56:14;;;;;;;;;;;;;;;12.44;10.58;99844.59;5051672;28;19920;-80
2024/01/09 04:58:40;;;;;;;;;;;;;;;12.72;10.31;99856.28;5034778;28;19923;-80
2024/01/09 05:01:10;;;;;;;;;;;;;;;12.82;10.31;99849.69;5038613;28;19999;-80
2024/01/09 05:03:36;;;;;;;;;;;;;;;12.58;10.44;99858.31;5052085;28;20502;-80
2024/01/09 05:06:02;;;;;;;;;;;;;;;12.56;10.61;99865.25;5038054;28;19965;-80
2024/01/09 05:08:28;;;;;;;;;;;;;;;12.43;10.49;99861.47;5043227;28;19924;-79
2024/01/09 05:10:54;;;;;;;;;;;;;;;12.39;10.25;99861.25;5034826;28;20315;-79
2024/01/09 05:13:20;;;;;;;;;;;;;;;11.93;10.60;99862.63;5047618;28;19936;-79
2024/01/09 05:15:46;;;;;;;;;;;;;;;12.12;10.53;99868.81;5024605;28;19925;-79
2024/01/09 05:18:12;;;;;;;;;;;;;;;12.41;10.34;99875.56;5045979;28;19928;-79
2024/01/09 05:20:38;;;;;;;;;;;;;;;11.52;11.04;99877.25;5049902;28;20185;-79
2024/01/09 05:23:04;;;;;;;;;;;;;;;11.51;10.72;99874.81;5041246;28;19922;-79
2024/01/09 05:25:30;;;;;;;;;;;;;;;11.59;10.80;99888.66;5036259;28;19988;-79
2024/01/09 05:27:56;;;;;;;;;;;;;;;11.42;11.06;99885.72;5046430;28;20381;-80
2024/01/09 05:30:22;;;;;;;;;;;;;;;11.74;11.10;99888.38;5041658;28;19921;-80
2024/01/09 05:32:48;;;;;;;;;;;;;;;11.92;10.70;99888.53;5037727;28;19921;-80
2024/01/09 05:35:14;;;;;;;;;;;;;;;11.63;10.78;99895.19;5039212;28;20336;-80
2024/01/09 05:37:40;;;;;;;;;;;;;;;11.20;11.29;99896.63;5041170;28;20348;-79
2024/01/09 05:40:06;;;;;;;;;;;;;;;10.81;11.24;99901.72;5041438;28;19964;-80
2024/01/09 05:42:32;;;;;;;;;;;;;;;10.06;11.92;99910.00;5038022;28;19917;-80
2024/01/09 05:44:58;;;;;;;;;;;;;;;9.57;11.91;99915.06;5043624;28;19928;-80
2024/01/09 05:47:24;;;;;;;;;;;;;;;9.46;12.42;99917.13;5047802;28;19974;-80
2024/01/09 05:49:50;;;;;;;;;;;;;;;9.47;12.18;99923.44;5042586;28;19920;-79
2024/01/09 05:52:16;;;;;;;;;;;;;;;9.65;12.12;99917.97;5042787;28;19936;-80
2024/01/09 05:54:46;;;;;;;;;;;;;;;9.13;12.66;99922.69;5044752;28;19921;-79
2024/01/09 05:57:12;;;;;;;;;;;;;;;9.17;12.80;99926.50;5043249;28;19928;-79
2024/01/09 05:59:38;;;;;;;;;;;;;;;9.66;12.49;99922.34;5047584;28;19921;-79
2024/01/09 06:02:04;;;;;;;;;;;;;;;10.29;11.90;99922.06;5055797;28;20253;-79
2024/01/09 06:04:30;;;;;;;;;;;;;;;9.70;12.38;99925.34;5051054;28;19921;-79
2024/01/09 06:06:56;;;;;;;;;;;;;;;9.09;12.70;99933.41;5056377;28;19923;-79
2024/01/09 06:09:22;;;;;;;;;;;;;;;9.52;12.41;99924.16;5056088;28;20381;-79
2024/01/09 06:11:48;;;;;;;;;;;;;;;9.94;12.30;99934.31;5052205;28;19922;-79
2024/01/09 06:14:14;;;;;;;;;;;;;;;10.32;11.92;99933.25;5055434;28;19931;-79
2024/01/09 06:16:40;;;;;;;;;;;;;;;10.50;11.79;99939.88;5054969;28;19917;-79
2024/01/09 06:19:06;;;;;;;;;;;;;;;9.93;11.89;99943.69;5055836;28;19920;-78
2024/01/09 06:21:32;;;;;;;;;;;;;;;10.13;12.25;99942.59;5055071;28;19916;-79
2024/01/09 06:23:58;;;;;;;;;;;;;;;10.20;12.06;99941.13;5056263;28;19920;-79
2024/01/09 06:26:24;;;;;;;;;;;;;;;10.15;12.35;99943.13;5056137;28;19917;-78
2024/01/09 06:28:50;;;;;;;;;;;;;;;9.70;12.16;99947.25;5055958;28;19973;-79
2024/01/09 06:31:16;;;;;;;;;;;;;;;8.36;13.02;99951.84;5029742;28;20372;-79
2024/01/09 06:33:42;;;;;;;;;;;;;;;8.76;12.98;99948.78;5047937;28;20062;-79
2024/01/09 06:36:08;;;;;;;;;;;;;;;8.28;13.54;99958.72;5052573;28;19974;-79
2024/01/09 06:38:34;;;;;;;;;;;;;;;8.42;13.34;99960.84;5055919;28;19963;-79
2024/01/09 06:41:00;;;;;;;;;;;;;;;8.26;13.22;99954.66;5056015;28;20397;-78
2024/01/09 06:43:26;;;;;;;;;;;;;;;7.65;13.66;99963.09;5052081;28;19921;-79
2024/01/09 06:45:52;;;;;;;;;;;;;;;7.74;13.96;99962.53;5054240;28;19929;-79
2024/01/09 06:48:18;;;;;;;;;;;;;;;7.13;13.62;99972.81;5054583;28;19920;-79
2024/01/09 06:50:44;;;;;;;;;;;;;;;5.98;15.25;99983.38;5050528;28;19917;-79
2024/01/09 06:53:10;;;;;;;;;;;;;;;6.42;14.84;99981.00;5048777;28;19920;-79
2024/01/09 06:55:36;;;;;;;;;;;;;;;6.86;14.88;99989.53;5053794;28;19960;-79
2024/01/09 06:58:03;;;;;;;;;;;;;;;4.73;16.13;99989.72;5054503;28;19920;-79
2024/01/09 07:00:29;;;;;;;;;;;;;;;5.27;15.60;99995.84;5052226;28;20031;-79
2024/01/09 07:02:55;;;;;;;;;;;;;;;6.02;15.10;99992.66;5052326;28;19975;-79
2024/01/09 07:05:21;;;;;;;;;;;;;;;4.38;16.17;100005.72;5053821;28;19916;-79
2024/01/09 07:07:47;;;;;;;;;;;;;;;4.55;16.50;100011.06;5047980;28;19920;-79
2024/01/09 07:10:13;;;;;;;;;;;;;;;4.62;16.06;99998.84;5044169;28;19967;-79
2024/01/09 07:12:39;;;;;;;;;;;;;;;4.86;16.38;100004.78;5047934;28;19989;-79
2024/01/09 07:15:08;;;;;;;;;;;;;;;5.54;15.52;99998.41;5047673;28;20396;-79
2024/01/09 07:17:34;;;;;;;;;;;;;;;4.18;16.92;100000.06;5035684;28;19921;-79
2024/01/09 07:20:00;;;;;;;;;;;;;;;4.54;16.44;99996.63;5052833;28;19921;-79
2024/01/09 07:22:26;;;;;;;;;;;;;;;5.57;15.76;99996.00;5053302;28;19943;-79
2024/01/09 07:24:52;;;;;;;;;;;;;;;7.04;14.85;99994.41;5049784;28;20439;-80
2024/01/09 07:27:18;;;;;;;;;;;;;;;7.87;14.21;100000.19;5048876;28;19925;-79
2024/01/09 07:29:44;;;;;;;;;;;;;;;7.63;14.26;99991.84;5047815;28;19975;-79
2024/01/09 07:32:10;;;;;;;;;;;;;;;6.81;15.01;100003.16;5053614;28;20354;-79
2024/01/09 07:34:36;;;;;;;;;;;;;;;6.94;15.08;100010.78;5054347;28;19925;-80
2024/01/09 07:37:02;;;;;;;;;;;;;;;6.95;15.26;100002.31;5054776;28;19928;-79
2024/01/09 07:39:28;;;;;;;;;;;;;;;4.48;17.70;100022.09;5039065;28;20300;-79
2024/01/09 07:41:54;;;;;;;;;;;;;;;6.19;16.00;100012.34;5043304;28;19921;-79
2024/01/09 07:44:20;;;;;;;;;;;;;;;5.09;17.16;100006.31;5054401;28;19924;-80
2024/01/09 07:46:46;;;;;;;;;;;;;;;5.68;16.43;100015.94;5053416;28;20273;-79
2024/01/09 07:49:12;;;;;;;;;;;;;;;5.14;16.85;100012.59;5039561;28;19921;-79
2024/01/09 07:51:38;;;;;;;;;;;;;;;6.90;16.22;100016.00;5051902;28;19948;-79
2024/01/09 07:54:04;;;;;;;;;;;;;;;6.44;16.32;100016.22;5040844;28;19921;-79
2024/01/09 07:56:31;;;;;;;;;;;;;;;5.99;16.74;100019.63;5053423;28;19921;-79
2024/01/09 07:58:57;;;;;;;;;;;;;;;6.41;16.35;100014.03;5053171;28;20471;-79
2024/01/09 08:01:24;;;;;;;;;;;;;;;5.68;17.10;100015.09;5043305;28;20399;-79
2024/01/09 08:03:50;;;;;;;;;;;;;;;6.87;16.28;100012.97;5040054;28;20388;-80
2024/01/09 08:06:16;;;;;;;;;;;;;;;7.63;15.72;100005.50;5042533;28;19921;-79
2024/01/09 08:08:42;;;;;;;;;;;;;;;8.27;15.48;100005.53;5030344;28;19998;-80
2024/01/09 08:11:08;;;;;;;;;;;;;;;8.20;15.24;100002.25;5034371;28;20295;-79
2024/01/09 08:13:35;;;;;;;;;;;;;;;8.83;14.97;100001.31;5049607;28;19921;-79
2024/01/09 08:16:01;;;;;;;;;;;;;;;8.29;15.61;100009.59;5043780;28;19925;-80
2024/01/09 08:18:27;;;;;;;;;;;;;;;10.03;14.37;100005.81;5046437;28;19928;-79
2024/01/09 08:20:53;;;;;;;;;;;;;;;11.49;13.58;99996.13;5051511;28;20376;-79
2024/01/09 08:23:19;;;;;;;;;;;;;;;12.38;12.65;99996.53;5051045;28;19936;-79
2024/01/09 08:25:45;;;;;;;;;;;;;;;12.96;12.34;99997.34;5045408;28;19964;-78
2024/01/09 08:28:11;;;;;;;;;;;;;;;12.71;12.39;100005.41;5053057;28;19964;-79
2024/01/09 08:30:38;;;;;;;;;;;;;;;12.55;12.63;99999.44;5044472;28;19982;-79
2024/01/09 08:33:04;;;;;;;;;;;;;;;12.29;12.74;100001.13;5047135;28;20015;-79
2024/01/09 08:35:30;;;;;;;;;;;;;;;12.03;13.08;100000.03;5050674;28;19921;-79
2024/01/09 08:37:56;;;;;;;;;;;;;;;11.62;13.44;100006.31;5043785;28;19920;-79
2024/01/09 08:40:22;;;;;;;;;;;;;;;10.38;13.87;100003.44;5047627;28;20296;-79
2024/01/09 08:42:48;;;;;;;;;;;;;;;9.55;15.04;100010.50;5040262;28;19925;-79
2024/01/09 08:45:16;;;;;;;;;;;;;;;8.96;15.38;100017.06;5044588;28;19963;-79
2024/01/09 08:47:42;;;;;;;;;;;;;;;10.57;14.65;100011.69;5039152;28;20401;-79
2024/01/09 08:50:08;;;;;;;;;;;;;;;11.61;13.79;100007.44;5049666;28;20022;-79
2024/01/09 08:52:37;;;;;;;;;;;;;;;12.10;13.40;100005.94;5044743;28;19921;-79
2024/01/09 08:55:03;;;;;;;;;;;;;;;12.94;12.88;100004.31;5047277;28;19922;-79
2024/01/09 08:57:29;;;;;;;;;;;;;;;13.61;12.74;100011.41;5052575;28;20031;-79
2024/01/09 08:59:57;;;;;;;;;;;;;;;13.14;12.86;100004.63;5049485;28;19939;-79
2024/01/09 09:02:24;;;;;;;;;;;;;;;13.31;12.87;100006.69;5043835;28;19971;-79
2024/01/09 09:04:50;;;;;;;;;;;;;;;11.06;14.27;100012.00;5044979;28;20062;-79
2024/01/09 09:07:18;;;;;;;;;;;;;;;10.69;14.86;100014.78;5035457;28;20015;-80
2024/01/09 09:09:44;;;;;;;;;;;;;;;12.10;13.90;100008.69;5048705;28;20327;-79
2024/01/09 09:12:11;;;;;;;;;;;;;;;13.03;13.29;100006.00;5050807;28;20023;-79
2024/01/09 09:14:37;;;;;;;;;;;;;;;14.08;12.75;99996.00;5033278;28;20385;-79
2024/01/09 09:17:03;;;;;;;;;;;;;;;13.97;12.56;99996.63;5042208;28;19959;-79
2024/01/09 09:19:31;;;;;;;;;;;;;;;14.24;12.35;99997.19;5049433;28;19972;-79
2024/01/09 09:22:03;;;;;;;;;;;;;;;13.61;12.64;99991.25;5050029;28;20339;-79
2024/01/09 09:24:29;;;;;;;;;;;;;;;13.29;12.94;99992.41;5045081;28;19917;-79
2024/01/09 09:26:55;;;;;;;;;;;;;;;11.19;14.32;99995.84;5051591;28;20004;-79
2024/01/09 09:29:21;;;;;;;;;;;;;;;11.84;14.29;99991.06;5043168;28;19953;-80
2024/01/09 09:31:47;;;;;;;;;;;;;;;11.45;14.46;99994.28;5043241;28;19928;-80
2024/01/09 09:34:13;;;;;;;;;;;;;;;12.68;14.04;99997.75;5044122;28;19970;-80
2024/01/09 09:36:39;;;;;;;;;;;;;;;13.47;13.35;99979.50;5051956;28;20230;-80
2024/01/09 09:39:05;;;;;;;;;;;;;;;13.77;13.13;99986.94;5051569;28;20004;-79
2024/01/09 09:41:32;;;;;;;;;;;;;;;14.26;12.68;99983.84;5026176;28;20362;-79
2024/01/09 09:43:58;;;;;;;;;;;;;;;14.34;12.75;99988.63;5052865;28;20383;-80
2024/01/09 09:46:26;;;;;;;;;;;;;;;14.06;13.18;99978.13;5045003;28;19921;-79
2024/01/09 09:48:53;;;;;;;;;;;;;;;14.09;12.86;99974.72;5043298;28;20296;-80
2024/01/09 09:51:24;;;;;;;;;;;;;;;13.84;13.12;99967.97;5050962;28;20400;-80
2024/01/09 09:53:51;;;;;;;;;;;;;;;14.50;12.87;99970.44;5047050;28;19944;-79
2024/01/09 09:56:17;;;;;;;;;;;;;;;14.46;12.73;99960.34;5047289;28;19921;-80
2024/01/09 09:58:43;;;;;;;;;;;;;;;14.01;13.22;99957.00;5043855;28;20377;-80
2024/01/09 10:01:10;;;;;;;;;;;;;;;13.52;13.32;99958.13;5049427;28;20011;-80
2024/01/09 10:03:38;;;;;;;;;;;;;;;10.05;15.81;99966.00;5041659;28;20443;-80
2024/01/09 10:06:05;;;;;;;;;;;;;;;10.51;15.89;99957.97;5049030;28;19978;-80
2024/01/09 10:08:33;;;;;;;;;;;;;;;11.56;15.67;99949.78;5043651;28;19921;-80
2024/01/09 10:11:00;;;;;;;;;;;;;;;12.64;14.75;99955.44;5047461;28;19925;-80
2024/01/09 10:13:26;;;;;;;;;;;;;;;13.50;14.15;99951.28;5050982;28;20126;-80
2024/01/09 10:15:55;;;;;;;;;;;;;;;14.25;13.80;99957.38;5044048;28;20010;-80
2024/01/09 10:18:21;;;;;;;;;;;;;;;15.11;13.48;99938.84;5034840;28;19922;-79
2024/01/09 10:20:47;;;;;;;;;;;;;;;15.87;12.73;99936.13;5045998;28;20377;-80
2024/01/09 10:23:14;;;;;;;;;;;;;;;15.99;12.83;99936.22;5066022;28;20438;-79
2024/01/09 10:25:40;;;;;;;;;;;;;;;15.89;12.67;99926.34;5051570;28;19938;-80
2024/01/09 10:28:08;;;;;;;;;;;;;;;15.35;12.94;99932.75;5036775;28;19974;-80
2024/01/09 10:30:37;;;;;;;;;;;;;;;15.28;13.23;99926.91;5051647;28;19920;-80
2024/01/09 10:33:08;;;;;;;;;;;;;;;15.69;13.29;99921.56;5053180;28;19917;-80
2024/01/09 10:35:34;;;;;;;;;;;;;;;16.13;12.92;99922.94;5053030;28;20388;-80
2024/01/09 10:38:00;;;;;;;;;;;;;;;15.05;13.52;99926.31;5053172;28;19921;-80
2024/01/09 10:40:26;;;;;;;;;;;;;;;14.27;13.77;99930.25;5054944;28;19970;-80
2024/01/09 10:42:52;;;;;;;;;;;;;;;11.04;15.95;99930.97;5054138;28;19921;-80
2024/01/09 10:45:21;;;;;;;;;;;;;;;9.46;17.96;99940.97;5054255;28;19929;-80
2024/01/09 10:47:48;;;;;;;;;;;;;;;7.24;19.26;99945.22;5054847;28;19917;-80
2024/01/09 10:50:14;;;;;;;;;;;;;;;6.63;20.45;99949.94;5054294;28;19924;-80
2024/01/09 10:52:40;;;;;;;;;;;;;;;7.33;20.17;99942.72;5051448;28;19921;-80
2024/01/09 10:55:08;;;;;;;;;;;;;;;10.01;18.11;99934.78;5053074;28;20304;-81
2024/01/09 10:57:34;;;;;;;;;;;;;;;11.40;16.98;99920.13;5051743;28;19925;-80
2024/01/09 11:00:00;;;;;;;;;;;;;;;8.11;19.54;99928.16;5052703;28;19966;-80
2024/01/09 11:02:32;;;;;;;;;;;;;;;7.74;19.31;99924.28;5051475;28;19925;-80
2024/01/09 11:04:58;;;;;;;;;;;;;;;8.40;19.15;99919.25;5054723;28;19913;-80
2024/01/09 11:07:25;;;;;;;;;;;;;;;6.89;20.74;99924.25;5050160;28;19921;-80
2024/01/09 11:09:53;;;;;;;;;;;;;;;7.65;20.72;99915.84;5054449;28;19927;-80
2024/01/09 11:12:24;;;;;;;;;;;;;;;7.63;20.62;99913.38;5050239;28;20401;-81
2024/01/09 11:14:57;;;;;;;;;;;;;;;4.73;22.89;99924.44;5053797;28;19929;-80
2024/01/09 11:17:24;;;;;;;;;;;;;;;5.77;22.80;99921.69;5053996;28;20419;-80
2024/01/09 11:19:50;;;;;;;;;;;;;;;6.07;22.51;99921.78;5052047;28;20337;-81
2024/01/09 11:22:17;;;;;;;;;;;;;;;4.70;23.81;99911.34;5033910;28;19927;-82
2024/01/09 11:24:47;;;;;;;;;;;;;;;5.70;23.00;99910.22;5051986;28;20361;-80
2024/01/09 11:27:15;;;;;;;;;;;;;;;6.28;21.87;99906.28;5052650;28;19960;-81
2024/01/09 11:29:48;;;;;;;;;;;;;;;5.76;22.27;99905.63;5053921;28;19921;-81
2024/01/09 11:32:15;;;;;;;;;;;;;;;5.01;23.77;99898.75;5053596;28;19924;-80
2024/01/09 11:34:42;;;;;;;;;;;;;;;6.03;22.04;99900.78;5052869;28;19917;-80
2024/01/09 11:37:12;;;;;;;;;;;;;;;6.51;22.00;99894.81;5045330;28;19947;-81
2024/01/09 11:39:39;;;;;;;;;;;;;;;7.49;20.56;99885.03;5036469;28;20025;-81
2024/01/09 11:42:05;;;;;;;;;;;;;;;8.16;20.77;99880.81;5047028;28;19917;-81
2024/01/09 11:44:31;;;;;;;;;;;;;;;12.09;17.34;99874.97;5053309;28;19929;-81
2024/01/09 11:46:57;;;;;;;;;;;;;;;12.83;16.18;99871.44;5053479;28;19923;-80
2024/01/09 11:49:23;;;;;;;;;;;;;;;12.29;16.54;99871.72;5052950;28;20407;-82
2024/01/09 11:51:49;;;;;;;;;;;;;;;13.35;15.73;99861.50;5047308;28;19925;-80
2024/01/09 11:54:17;;;;;;;;;;;;;;;10.45;17.80;99874.06;5048023;28;19929;-80
2024/01/09 11:56:43;;;;;;;;;;;;;;;9.31;19.16;99878.91;5032717;28;20373;-80
2024/01/09 11:59:09;;;;;;;;;;;;;;;8.33;20.07;99886.75;5053243;28;19921;-80
2024/01/09 12:01:36;;;;;;;;;;;;;;;11.38;17.68;99876.44;5053371;28;19917;-80
2024/01/09 12:04:02;;;;;;;;;;;;;;;14.20;15.69;99877.44;5049220;28;19913;-80
2024/01/09 12:06:31;;;;;;;;;;;;;;;15.61;14.45;99867.03;5053120;28;20004;-80
2024/01/09 12:08:57;;;;;;;;;;;;;;;15.33;14.27;99865.88;5052256;28;19912;-80
2024/01/09 12:11:23;;;;;;;;;;;;;;;14.75;14.62;99869.28;5033329;28;20011;-80
2024/01/09 12:13:59;;;;;;;;;;;;;;;15.42;14.36;99863.88;5052750;28;19956;-80
2024/01/09 12:16:31;;;;;;;;;;;;;;;15.43;14.79;99859.94;5047139;28;19925;-80
2024/01/09 12:18:58;;;;;;;;;;;;;;;13.85;14.86;99873.81;5049875;28;20019;-80
2024/01/09 12:21:26;;;;;;;;;;;;;;;13.28;15.71;99868.63;5042238;28;19921;-81
2024/01/09 12:23:53;;;;;;;;;;;;;;;14.16;15.54;99873.69;5051836;28;20008;-80
2024/01/09 12:26:20;;;;;;;;;;;;;;;15.11;14.61;99855.84;5052860;28;19927;-80
2024/01/09 12:28:47;;;;;;;;;;;;;;;15.05;14.02;99856.38;5049662;28;20012;-80
2024/01/09 12:31:15;;;;;;;;;;;;;;;15.18;14.16;99853.38;5053330;28;19928;-80
2024/01/09 12:33:41;;;;;;;;;;;;;;;14.64;14.58;99853.34;5050492;28;19921;-80
2024/01/09 12:36:07;;;;;;;;;;;;;;;14.89;14.54;99847.78;5024309;28;19921;-80
2024/01/09 12:38:33;;;;;;;;;;;;;;;15.00;14.37;99857.34;5042071;28;19921;-80
2024/01/09 12:40:59;;;;;;;;;;;;;;;16.16;13.99;99855.75;5048907;28;19931;-78
2024/01/09 12:43:26;;;;;;;;;;;;;;;16.64;13.19;99860.75;5044847;28;19921;-80